sensor_id;sensor_type;location;lat;lon;timestamp;P1;durP1;ratioP1;P2;durP2;ratioP2
19187;SDS011;9726;52.198;8.792;2024-01-30T00:00:33;39.77;;;19.77;;
19187;SDS011;9726;52.198;8.792;2024-01-30T00:03:01;39.33;;;20.70;;
19187;SDS011;9726;52.198;8.792;2024-01-30T00:05:28;37.87;;;18.70;;
19187;SDS011;9726;52.198;8.792;2024-01-30T00:07:55;39.50;;;19.87;;
19187;SDS011;9726;52.198;8.792;2024-01-30T00:10:22;41.93;;;19.17;;
19187;SDS011;9726;52.198;8.792;2024-01-30T00:12:49;41.67;;;21.13;;
19187;SDS011;9726;52.198;8.792;2024-01-30T00:15:16;40.43;;;20.33;;
19187;SDS011;9726;52.198;8.792;2024-01-30T00:17:44;44.70;;;19.70;;
19187;SDS011;9726;52.198;8.792;2024-01-30T00:20:11;42.13;;;19.77;;
19187;SDS011;9726;52.198;8.792;2024-01-30T00:22:39;39.43;;;20.37;;
19187;SDS011;9726;52.198;8.792;2024-01-30T00:25:06;50.10;;;21.43;;
19187;SDS011;9726;52.198;8.792;2024-01-30T00:27:34;36.60;;;19.97;;
19187;SDS011;9726;52.198;8.792;2024-01-30T00:30:01;45.17;;;20.80;;
19187;SDS011;9726;52.198;8.792;2024-01-30T00:32:29;47.90;;;20.13;;
19187;SDS011;9726;52.198;8.792;2024-01-30T00:34:56;45.20;;;20.53;;
19187;SDS011;9726;52.198;8.792;2024-01-30T00:37:23;33.47;;;19.37;;
19187;SDS011;9726;52.198;8.792;2024-01-30T00:39:50;44.83;;;21.43;;
19187;SDS011;9726;52.198;8.792;2024-01-30T00:42:17;41.00;;;20.97;;
19187;SDS011;9726;52.198;8.792;2024-01-30T00:44:44;39.87;;;19.77;;
19187;SDS011;9726;52.198;8.792;2024-01-30T00:47:11;40.80;;;19.13;;
19187;SDS011;9726;52.198;8.792;2024-01-30T00:49:38;37.57;;;19.40;;
19187;SDS011;9726;52.198;8.792;2024-01-30T00:52:06;50.07;;;22.27;;
19187;SDS011;9726;52.198;8.792;2024-01-30T00:54:33;38.67;;;19.57;;
19187;SDS011;9726;52.198;8.792;2024-01-30T00:57:00;36.97;;;21.47;;
19187;SDS011;9726;52.198;8.792;2024-01-30T00:59:27;36.50;;;19.60;;
19187;SDS011;9726;52.198;8.792;2024-01-30T01:01:54;49.20;;;22.57;;
19187;SDS011;9726;52.198;8.792;2024-01-30T01:04:21;37.17;;;20.67;;
19187;SDS011;9726;52.198;8.792;2024-01-30T01:06:49;40.70;;;21.53;;
19187;SDS011;9726;52.198;8.792;2024-01-30T01:09:16;36.20;;;19.70;;
19187;SDS011;9726;52.198;8.792;2024-01-30T01:11:43;40.53;;;20.57;;
19187;SDS011;9726;52.198;8.792;2024-01-30T01:14:10;35.07;;;18.67;;
19187;SDS011;9726;52.198;8.792;2024-01-30T01:16:38;40.67;;;19.93;;
19187;SDS011;9726;52.198;8.792;2024-01-30T01:19:05;40.80;;;18.83;;
19187;SDS011;9726;52.198;8.792;2024-01-30T01:21:32;45.50;;;19.80;;
19187;SDS011;9726;52.198;8.792;2024-01-30T01:23:59;39.43;;;18.90;;
19187;SDS011;9726;52.198;8.792;2024-01-30T01:26:26;35.17;;;19.03;;
19187;SDS011;9726;52.198;8.792;2024-01-30T01:28:55;35.17;;;18.77;;
19187;SDS011;9726;52.198;8.792;2024-01-30T01:31:22;42.50;;;20.03;;
19187;SDS011;9726;52.198;8.792;2024-01-30T01:33:51;39.67;;;18.40;;
19187;SDS011;9726;52.198;8.792;2024-01-30T01:36:18;36.80;;;18.87;;
19187;SDS011;9726;52.198;8.792;2024-01-30T01:38:45;41.20;;;19.67;;
19187;SDS011;9726;52.198;8.792;2024-01-30T01:41:13;38.77;;;19.97;;
19187;SDS011;9726;52.198;8.792;2024-01-30T01:43:40;41.53;;;19.10;;
19187;SDS011;9726;52.198;8.792;2024-01-30T01:46:07;40.97;;;18.77;;
19187;SDS011;9726;52.198;8.792;2024-01-30T01:48:35;36.37;;;19.00;;
19187;SDS011;9726;52.198;8.792;2024-01-30T01:51:04;51.33;;;19.87;;
19187;SDS011;9726;52.198;8.792;2024-01-30T01:53:31;36.90;;;17.77;;
19187;SDS011;9726;52.198;8.792;2024-01-30T01:55:59;35.57;;;18.83;;
19187;SDS011;9726;52.198;8.792;2024-01-30T01:58:26;37.77;;;20.30;;
19187;SDS011;9726;52.198;8.792;2024-01-30T02:00:58;33.43;;;18.20;;
19187;SDS011;9726;52.198;8.792;2024-01-30T02:03:26;40.03;;;18.30;;
19187;SDS011;9726;52.198;8.792;2024-01-30T02:05:53;34.67;;;20.50;;
19187;SDS011;9726;52.198;8.792;2024-01-30T02:08:21;39.10;;;19.27;;
19187;SDS011;9726;52.198;8.792;2024-01-30T02:10:50;42.87;;;18.53;;
19187;SDS011;9726;52.198;8.792;2024-01-30T02:13:17;39.73;;;21.10;;
19187;SDS011;9726;52.198;8.792;2024-01-30T02:15:48;40.83;;;19.83;;
19187;SDS011;9726;52.198;8.792;2024-01-30T02:18:16;39.67;;;18.97;;
19187;SDS011;9726;52.198;8.792;2024-01-30T02:20:49;38.07;;;18.40;;
19187;SDS011;9726;52.198;8.792;2024-01-30T02:23:19;34.90;;;19.17;;
19187;SDS011;9726;52.198;8.792;2024-01-30T02:25:47;40.03;;;19.27;;
19187;SDS011;9726;52.198;8.792;2024-01-30T02:28:14;30.47;;;17.63;;
19187;SDS011;9726;52.198;8.792;2024-01-30T02:30:42;43.33;;;20.80;;
19187;SDS011;9726;52.198;8.792;2024-01-30T02:33:10;38.00;;;19.87;;
19187;SDS011;9726;52.198;8.792;2024-01-30T02:35:37;38.43;;;19.73;;
19187;SDS011;9726;52.198;8.792;2024-01-30T02:38:04;30.63;;;19.40;;
19187;SDS011;9726;52.198;8.792;2024-01-30T02:40:31;39.17;;;18.60;;
19187;SDS011;9726;52.198;8.792;2024-01-30T02:42:59;38.23;;;17.80;;
19187;SDS011;9726;52.198;8.792;2024-01-30T02:45:27;38.37;;;19.73;;
19187;SDS011;9726;52.198;8.792;2024-01-30T02:47:54;30.50;;;18.77;;
19187;SDS011;9726;52.198;8.792;2024-01-30T02:50:22;37.37;;;20.20;;
19187;SDS011;9726;52.198;8.792;2024-01-30T02:52:49;47.43;;;23.13;;
19187;SDS011;9726;52.198;8.792;2024-01-30T02:55:16;37.53;;;20.27;;
19187;SDS011;9726;52.198;8.792;2024-01-30T02:57:46;36.30;;;20.00;;
19187;SDS011;9726;52.198;8.792;2024-01-30T03:00:13;44.97;;;22.13;;
19187;SDS011;9726;52.198;8.792;2024-01-30T03:02:41;41.77;;;20.80;;
19187;SDS011;9726;52.198;8.792;2024-01-30T03:05:08;37.33;;;20.13;;
19187;SDS011;9726;52.198;8.792;2024-01-30T03:07:35;42.17;;;20.57;;
19187;SDS011;9726;52.198;8.792;2024-01-30T03:10:03;38.20;;;20.20;;
19187;SDS011;9726;52.198;8.792;2024-01-30T03:12:32;39.63;;;21.33;;
19187;SDS011;9726;52.198;8.792;2024-01-30T03:14:59;44.60;;;22.20;;
19187;SDS011;9726;52.198;8.792;2024-01-30T03:17:27;43.47;;;21.17;;
19187;SDS011;9726;52.198;8.792;2024-01-30T03:19:54;39.23;;;19.63;;
19187;SDS011;9726;52.198;8.792;2024-01-30T03:22:21;42.00;;;20.57;;
19187;SDS011;9726;52.198;8.792;2024-01-30T03:24:48;47.70;;;21.43;;
19187;SDS011;9726;52.198;8.792;2024-01-30T03:27:15;40.77;;;20.97;;
19187;SDS011;9726;52.198;8.792;2024-01-30T03:29:42;42.10;;;21.83;;
19187;SDS011;9726;52.198;8.792;2024-01-30T03:32:09;43.67;;;22.10;;
19187;SDS011;9726;52.198;8.792;2024-01-30T03:34:36;49.27;;;22.00;;
19187;SDS011;9726;52.198;8.792;2024-01-30T03:37:04;43.87;;;22.77;;
19187;SDS011;9726;52.198;8.792;2024-01-30T03:39:31;46.67;;;21.63;;
19187;SDS011;9726;52.198;8.792;2024-01-30T03:41:58;46.90;;;23.57;;
19187;SDS011;9726;52.198;8.792;2024-01-30T03:44:25;45.53;;;21.83;;
19187;SDS011;9726;52.198;8.792;2024-01-30T03:46:52;42.40;;;21.00;;
19187;SDS011;9726;52.198;8.792;2024-01-30T03:49:19;42.23;;;24.27;;
19187;SDS011;9726;52.198;8.792;2024-01-30T03:51:46;50.43;;;24.03;;
19187;SDS011;9726;52.198;8.792;2024-01-30T03:54:14;46.97;;;24.47;;
19187;SDS011;9726;52.198;8.792;2024-01-30T03:56:41;46.03;;;24.43;;
19187;SDS011;9726;52.198;8.792;2024-01-30T03:59:08;40.80;;;21.30;;
19187;SDS011;9726;52.198;8.792;2024-01-30T04:01:35;46.03;;;22.20;;
19187;SDS011;9726;52.198;8.792;2024-01-30T04:04:03;44.37;;;23.60;;
19187;SDS011;9726;52.198;8.792;2024-01-30T04:06:30;43.23;;;22.37;;
19187;SDS011;9726;52.198;8.792;2024-01-30T04:08:57;39.43;;;22.23;;
19187;SDS011;9726;52.198;8.792;2024-01-30T04:11:24;41.40;;;22.80;;
19187;SDS011;9726;52.198;8.792;2024-01-30T04:13:51;41.00;;;22.20;;
19187;SDS011;9726;52.198;8.792;2024-01-30T04:16:21;36.07;;;20.43;;
19187;SDS011;9726;52.198;8.792;2024-01-30T04:18:51;45.07;;;23.60;;
19187;SDS011;9726;52.198;8.792;2024-01-30T04:21:20;43.73;;;23.13;;
19187;SDS011;9726;52.198;8.792;2024-01-30T04:23:48;46.00;;;23.23;;
19187;SDS011;9726;52.198;8.792;2024-01-30T04:26:15;41.60;;;22.53;;
19187;SDS011;9726;52.198;8.792;2024-01-30T04:28:42;48.03;;;22.97;;
19187;SDS011;9726;52.198;8.792;2024-01-30T04:31:10;43.23;;;23.87;;
19187;SDS011;9726;52.198;8.792;2024-01-30T04:33:38;42.63;;;22.37;;
19187;SDS011;9726;52.198;8.792;2024-01-30T04:36:08;50.80;;;23.97;;
19187;SDS011;9726;52.198;8.792;2024-01-30T04:38:37;44.20;;;21.60;;
19187;SDS011;9726;52.198;8.792;2024-01-30T04:41:05;45.60;;;22.37;;
19187;SDS011;9726;52.198;8.792;2024-01-30T04:43:32;39.77;;;23.47;;
19187;SDS011;9726;52.198;8.792;2024-01-30T04:45:59;46.53;;;23.47;;
19187;SDS011;9726;52.198;8.792;2024-01-30T04:48:26;41.80;;;23.13;;
19187;SDS011;9726;52.198;8.792;2024-01-30T04:50:53;40.83;;;22.67;;
19187;SDS011;9726;52.198;8.792;2024-01-30T04:53:21;45.67;;;25.03;;
19187;SDS011;9726;52.198;8.792;2024-01-30T04:55:48;37.30;;;22.20;;
19187;SDS011;9726;52.198;8.792;2024-01-30T04:58:15;39.37;;;21.60;;
19187;SDS011;9726;52.198;8.792;2024-01-30T05:00:43;44.50;;;24.73;;
19187;SDS011;9726;52.198;8.792;2024-01-30T05:03:10;48.53;;;25.37;;
19187;SDS011;9726;52.198;8.792;2024-01-30T05:05:37;48.73;;;24.67;;
19187;SDS011;9726;52.198;8.792;2024-01-30T05:08:04;43.83;;;25.63;;
19187;SDS011;9726;52.198;8.792;2024-01-30T05:10:31;54.23;;;25.07;;
19187;SDS011;9726;52.198;8.792;2024-01-30T05:12:59;47.93;;;22.47;;
19187;SDS011;9726;52.198;8.792;2024-01-30T05:15:26;42.53;;;23.50;;
19187;SDS011;9726;52.198;8.792;2024-01-30T05:17:53;51.67;;;26.17;;
19187;SDS011;9726;52.198;8.792;2024-01-30T05:20:20;52.03;;;24.30;;
19187;SDS011;9726;52.198;8.792;2024-01-30T05:22:47;50.57;;;25.37;;
19187;SDS011;9726;52.198;8.792;2024-01-30T05:25:14;43.43;;;23.23;;
19187;SDS011;9726;52.198;8.792;2024-01-30T05:27:41;44.60;;;23.47;;
19187;SDS011;9726;52.198;8.792;2024-01-30T05:30:09;42.43;;;21.90;;
19187;SDS011;9726;52.198;8.792;2024-01-30T05:32:36;49.50;;;25.17;;
19187;SDS011;9726;52.198;8.792;2024-01-30T05:35:03;45.83;;;23.20;;
19187;SDS011;9726;52.198;8.792;2024-01-30T05:37:31;39.63;;;23.80;;
19187;SDS011;9726;52.198;8.792;2024-01-30T05:39:58;44.70;;;23.60;;
19187;SDS011;9726;52.198;8.792;2024-01-30T05:42:26;50.27;;;23.97;;
19187;SDS011;9726;52.198;8.792;2024-01-30T05:44:53;100.32;;;36.78;;
19187;SDS011;9726;52.198;8.792;2024-01-30T05:47:20;55.67;;;28.60;;
19187;SDS011;9726;52.198;8.792;2024-01-30T05:49:47;73.13;;;30.10;;
19187;SDS011;9726;52.198;8.792;2024-01-30T05:52:14;54.50;;;27.13;;
19187;SDS011;9726;52.198;8.792;2024-01-30T05:54:42;55.07;;;25.47;;
19187;SDS011;9726;52.198;8.792;2024-01-30T05:57:10;52.73;;;26.40;;
19187;SDS011;9726;52.198;8.792;2024-01-30T05:59:37;54.27;;;26.40;;
19187;SDS011;9726;52.198;8.792;2024-01-30T06:02:07;45.97;;;25.53;;
19187;SDS011;9726;52.198;8.792;2024-01-30T06:04:34;49.67;;;26.97;;
19187;SDS011;9726;52.198;8.792;2024-01-30T06:07:02;50.03;;;27.50;;
19187;SDS011;9726;52.198;8.792;2024-01-30T06:09:31;52.77;;;25.43;;
19187;SDS011;9726;52.198;8.792;2024-01-30T06:11:58;51.37;;;24.83;;
19187;SDS011;9726;52.198;8.792;2024-01-30T06:14:25;52.33;;;28.60;;
19187;SDS011;9726;52.198;8.792;2024-01-30T06:16:52;50.70;;;27.27;;
19187;SDS011;9726;52.198;8.792;2024-01-30T06:19:19;52.63;;;27.23;;
19187;SDS011;9726;52.198;8.792;2024-01-30T06:21:46;60.23;;;28.10;;
19187;SDS011;9726;52.198;8.792;2024-01-30T06:24:13;51.77;;;26.70;;
19187;SDS011;9726;52.198;8.792;2024-01-30T06:26:40;50.37;;;25.27;;
19187;SDS011;9726;52.198;8.792;2024-01-30T06:29:07;63.13;;;27.50;;
19187;SDS011;9726;52.198;8.792;2024-01-30T06:31:41;52.93;;;26.10;;
19187;SDS011;9726;52.198;8.792;2024-01-30T06:34:08;48.67;;;25.27;;
19187;SDS011;9726;52.198;8.792;2024-01-30T06:36:36;50.27;;;24.13;;
19187;SDS011;9726;52.198;8.792;2024-01-30T06:39:03;46.07;;;23.53;;
19187;SDS011;9726;52.198;8.792;2024-01-30T06:41:30;58.00;;;27.70;;
19187;SDS011;9726;52.198;8.792;2024-01-30T06:43:58;54.47;;;26.73;;
19187;SDS011;9726;52.198;8.792;2024-01-30T10:12:00;13.23;;;7.33;;
19187;SDS011;9726;52.198;8.792;2024-01-30T10:14:30;14.13;;;7.17;;
19187;SDS011;9726;52.198;8.792;2024-01-30T10:16:57;10.50;;;6.47;;
19187;SDS011;9726;52.198;8.792;2024-01-30T10:19:25;17.50;;;6.83;;
19187;SDS011;9726;52.198;8.792;2024-01-30T10:21:52;12.03;;;6.70;;
19187;SDS011;9726;52.198;8.792;2024-01-30T10:24:23;12.97;;;6.43;;
19187;SDS011;9726;52.198;8.792;2024-01-30T10:26:51;15.20;;;7.23;;
19187;SDS011;9726;52.198;8.792;2024-01-30T10:29:18;13.87;;;7.37;;
19187;SDS011;9726;52.198;8.792;2024-01-30T10:31:45;15.53;;;6.60;;
19187;SDS011;9726;52.198;8.792;2024-01-30T10:34:13;10.10;;;6.83;;
19187;SDS011;9726;52.198;8.792;2024-01-30T10:36:49;17.23;;;7.40;;
19187;SDS011;9726;52.198;8.792;2024-01-30T10:39:19;14.47;;;6.83;;
19187;SDS011;9726;52.198;8.792;2024-01-30T10:41:49;13.67;;;6.97;;
19187;SDS011;9726;52.198;8.792;2024-01-30T10:44:22;19.37;;;7.07;;
19187;SDS011;9726;52.198;8.792;2024-01-30T10:46:51;11.67;;;7.43;;
19187;SDS011;9726;52.198;8.792;2024-01-30T10:49:26;15.20;;;7.70;;
19187;SDS011;9726;52.198;8.792;2024-01-30T10:51:55;15.90;;;7.83;;
19187;SDS011;9726;52.198;8.792;2024-01-30T10:54:24;11.60;;;7.33;;
19187;SDS011;9726;52.198;8.792;2024-01-30T10:56:53;14.13;;;7.40;;
19187;SDS011;9726;52.198;8.792;2024-01-30T10:59:20;14.53;;;7.23;;
19187;SDS011;9726;52.198;8.792;2024-01-30T11:01:50;18.97;;;8.23;;
19187;SDS011;9726;52.198;8.792;2024-01-30T11:04:18;11.77;;;7.57;;
19187;SDS011;9726;52.198;8.792;2024-01-30T11:06:46;14.33;;;7.13;;
19187;SDS011;9726;52.198;8.792;2024-01-30T11:09:17;12.43;;;6.90;;
19187;SDS011;9726;52.198;8.792;2024-01-30T11:11:51;11.23;;;7.07;;
19187;SDS011;9726;52.198;8.792;2024-01-30T11:14:24;11.20;;;5.90;;
19187;SDS011;9726;52.198;8.792;2024-01-30T11:16:57;12.73;;;6.23;;
19187;SDS011;9726;52.198;8.792;2024-01-30T11:19:26;16.00;;;7.07;;
19187;SDS011;9726;52.198;8.792;2024-01-30T11:21:54;9.97;;;5.87;;
19187;SDS011;9726;52.198;8.792;2024-01-30T11:24:24;12.50;;;6.07;;
19187;SDS011;9726;52.198;8.792;2024-01-30T11:27:01;15.50;;;6.90;;
19187;SDS011;9726;52.198;8.792;2024-01-30T11:29:34;10.47;;;6.53;;
19187;SDS011;9726;52.198;8.792;2024-01-30T11:32:01;9.07;;;5.67;;
19187;SDS011;9726;52.198;8.792;2024-01-30T11:34:30;12.23;;;5.67;;
19187;SDS011;9726;52.198;8.792;2024-01-30T11:37:06;10.30;;;6.30;;
19187;SDS011;9726;52.198;8.792;2024-01-30T11:39:38;11.07;;;6.57;;
19187;SDS011;9726;52.198;8.792;2024-01-30T11:42:08;12.57;;;6.03;;
19187;SDS011;9726;52.198;8.792;2024-01-30T11:44:35;10.67;;;6.23;;
19187;SDS011;9726;52.198;8.792;2024-01-30T11:47:02;15.53;;;6.63;;
19187;SDS011;9726;52.198;8.792;2024-01-30T11:49:30;8.40;;;4.97;;
19187;SDS011;9726;52.198;8.792;2024-01-30T11:51:59;11.27;;;6.50;;
19187;SDS011;9726;52.198;8.792;2024-01-30T11:54:26;15.97;;;5.60;;
19187;SDS011;9726;52.198;8.792;2024-01-30T11:56:53;15.23;;;6.27;;
19187;SDS011;9726;52.198;8.792;2024-01-30T11:59:20;17.20;;;6.43;;
19187;SDS011;9726;52.198;8.792;2024-01-30T12:01:47;16.23;;;6.57;;
19187;SDS011;9726;52.198;8.792;2024-01-30T12:04:15;17.03;;;7.00;;
19187;SDS011;9726;52.198;8.792;2024-01-30T12:06:51;16.23;;;7.40;;
19187;SDS011;9726;52.198;8.792;2024-01-30T12:09:19;15.57;;;6.63;;
19187;SDS011;9726;52.198;8.792;2024-01-30T12:11:46;12.77;;;6.10;;
19187;SDS011;9726;52.198;8.792;2024-01-30T12:14:14;13.30;;;5.90;;
19187;SDS011;9726;52.198;8.792;2024-01-30T12:16:42;12.43;;;6.13;;
19187;SDS011;9726;52.198;8.792;2024-01-30T12:19:09;13.83;;;6.13;;
19187;SDS011;9726;52.198;8.792;2024-01-30T12:21:38;9.90;;;5.70;;
19187;SDS011;9726;52.198;8.792;2024-01-30T12:24:05;21.67;;;8.47;;
19187;SDS011;9726;52.198;8.792;2024-01-30T12:26:34;15.47;;;6.07;;
19187;SDS011;9726;52.198;8.792;2024-01-30T12:29:03;13.80;;;6.73;;
19187;SDS011;9726;52.198;8.792;2024-01-30T12:31:31;10.83;;;6.87;;
19187;SDS011;9726;52.198;8.792;2024-01-30T12:34:00;17.57;;;7.13;;
19187;SDS011;9726;52.198;8.792;2024-01-30T12:36:28;15.97;;;7.20;;
19187;SDS011;9726;52.198;8.792;2024-01-30T12:38:56;12.60;;;7.00;;
19187;SDS011;9726;52.198;8.792;2024-01-30T12:41:25;13.93;;;6.60;;
19187;SDS011;9726;52.198;8.792;2024-01-30T12:43:56;20.13;;;7.30;;
19187;SDS011;9726;52.198;8.792;2024-01-30T12:46:27;19.17;;;7.57;;
19187;SDS011;9726;52.198;8.792;2024-01-30T12:48:55;16.97;;;7.60;;
19187;SDS011;9726;52.198;8.792;2024-01-30T12:51:23;18.40;;;6.93;;
19187;SDS011;9726;52.198;8.792;2024-01-30T12:53:50;18.07;;;7.50;;
19187;SDS011;9726;52.198;8.792;2024-01-30T12:56:18;14.47;;;7.40;;
19187;SDS011;9726;52.198;8.792;2024-01-30T12:58:45;20.33;;;7.00;;
19187;SDS011;9726;52.198;8.792;2024-01-30T13:01:17;17.33;;;6.87;;
19187;SDS011;9726;52.198;8.792;2024-01-30T13:03:44;18.43;;;7.10;;
19187;SDS011;9726;52.198;8.792;2024-01-30T13:06:11;17.07;;;7.20;;
19187;SDS011;9726;52.198;8.792;2024-01-30T13:08:39;21.63;;;8.40;;
19187;SDS011;9726;52.198;8.792;2024-01-30T13:11:06;19.30;;;7.77;;
19187;SDS011;9726;52.198;8.792;2024-01-30T13:13:46;15.33;;;7.43;;
19187;SDS011;9726;52.198;8.792;2024-01-30T13:16:14;16.00;;;8.53;;
19187;SDS011;9726;52.198;8.792;2024-01-30T13:18:41;22.80;;;7.37;;
19187;SDS011;9726;52.198;8.792;2024-01-30T13:21:08;20.40;;;7.80;;
19187;SDS011;9726;52.198;8.792;2024-01-30T13:23:35;22.93;;;7.47;;
19187;SDS011;9726;52.198;8.792;2024-01-30T13:26:02;22.40;;;8.57;;
19187;SDS011;9726;52.198;8.792;2024-01-30T13:28:30;26.63;;;9.00;;
19187;SDS011;9726;52.198;8.792;2024-01-30T13:30:57;20.43;;;9.33;;
19187;SDS011;9726;52.198;8.792;2024-01-30T13:33:25;12.47;;;7.03;;
19187;SDS011;9726;52.198;8.792;2024-01-30T13:35:53;20.60;;;7.37;;
19187;SDS011;9726;52.198;8.792;2024-01-30T13:38:20;17.27;;;8.13;;
19187;SDS011;9726;52.198;8.792;2024-01-30T13:40:47;19.47;;;8.80;;
19187;SDS011;9726;52.198;8.792;2024-01-30T13:43:14;21.87;;;7.70;;
19187;SDS011;9726;52.198;8.792;2024-01-30T13:45:43;19.70;;;8.23;;
19187;SDS011;9726;52.198;8.792;2024-01-30T13:48:10;16.77;;;7.43;;
19187;SDS011;9726;52.198;8.792;2024-01-30T13:50:37;19.60;;;8.47;;
19187;SDS011;9726;52.198;8.792;2024-01-30T13:53:04;19.07;;;7.80;;
19187;SDS011;9726;52.198;8.792;2024-01-30T13:55:31;18.70;;;8.43;;
19187;SDS011;9726;52.198;8.792;2024-01-30T13:57:59;19.43;;;9.03;;
19187;SDS011;9726;52.198;8.792;2024-01-30T14:00:28;17.30;;;8.10;;
19187;SDS011;9726;52.198;8.792;2024-01-30T14:02:55;20.33;;;9.23;;
19187;SDS011;9726;52.198;8.792;2024-01-30T14:05:24;22.33;;;8.73;;
19187;SDS011;9726;52.198;8.792;2024-01-30T14:07:52;18.73;;;9.60;;
19187;SDS011;9726;52.198;8.792;2024-01-30T14:10:19;19.07;;;9.40;;
19187;SDS011;9726;52.198;8.792;2024-01-30T14:12:50;24.13;;;9.60;;
19187;SDS011;9726;52.198;8.792;2024-01-30T14:15:17;21.50;;;9.83;;
19187;SDS011;9726;52.198;8.792;2024-01-30T14:17:55;25.13;;;11.20;;
19187;SDS011;9726;52.198;8.792;2024-01-30T14:20:24;26.93;;;10.30;;
19187;SDS011;9726;52.198;8.792;2024-01-30T14:22:52;22.20;;;10.70;;
19187;SDS011;9726;52.198;8.792;2024-01-30T14:25:23;20.30;;;10.33;;
19187;SDS011;9726;52.198;8.792;2024-01-30T14:27:52;27.87;;;11.80;;
19187;SDS011;9726;52.198;8.792;2024-01-30T14:30:19;27.63;;;11.50;;
19187;SDS011;9726;52.198;8.792;2024-01-30T14:32:46;19.73;;;9.67;;
19187;SDS011;9726;52.198;8.792;2024-01-30T14:35:15;25.23;;;10.77;;
19187;SDS011;9726;52.198;8.792;2024-01-30T14:37:43;20.00;;;10.73;;
19187;SDS011;9726;52.198;8.792;2024-01-30T14:40:10;20.30;;;11.27;;
19187;SDS011;9726;52.198;8.792;2024-01-30T14:42:38;24.27;;;11.07;;
19187;SDS011;9726;52.198;8.792;2024-01-30T14:45:06;22.77;;;11.77;;
19187;SDS011;9726;52.198;8.792;2024-01-30T14:47:34;27.37;;;12.53;;
19187;SDS011;9726;52.198;8.792;2024-01-30T14:50:03;35.23;;;11.73;;
19187;SDS011;9726;52.198;8.792;2024-01-30T14:52:35;25.23;;;12.97;;
19187;SDS011;9726;52.198;8.792;2024-01-30T14:55:03;22.30;;;13.13;;
19187;SDS011;9726;52.198;8.792;2024-01-30T14:57:31;27.40;;;13.00;;
19187;SDS011;9726;52.198;8.792;2024-01-30T14:59:58;23.57;;;12.53;;
19187;SDS011;9726;52.198;8.792;2024-01-30T15:02:26;25.43;;;13.40;;
19187;SDS011;9726;52.198;8.792;2024-01-30T15:04:53;24.00;;;11.40;;
19187;SDS011;9726;52.198;8.792;2024-01-30T15:07:20;23.80;;;12.17;;
19187;SDS011;9726;52.198;8.792;2024-01-30T15:10:01;28.70;;;12.07;;
19187;SDS011;9726;52.198;8.792;2024-01-30T15:12:30;23.40;;;12.10;;
19187;SDS011;9726;52.198;8.792;2024-01-30T15:14:57;24.47;;;12.77;;
19187;SDS011;9726;52.198;8.792;2024-01-30T15:17:24;20.60;;;11.77;;
19187;SDS011;9726;52.198;8.792;2024-01-30T15:19:51;19.80;;;12.73;;
19187;SDS011;9726;52.198;8.792;2024-01-30T15:22:19;22.97;;;12.00;;
19187;SDS011;9726;52.198;8.792;2024-01-30T15:24:46;23.93;;;11.33;;
19187;SDS011;9726;52.198;8.792;2024-01-30T15:27:13;19.80;;;12.77;;
19187;SDS011;9726;52.198;8.792;2024-01-30T15:29:41;22.33;;;11.97;;
19187;SDS011;9726;52.198;8.792;2024-01-30T15:32:08;27.90;;;12.10;;
19187;SDS011;9726;52.198;8.792;2024-01-30T15:34:35;27.67;;;12.13;;
19187;SDS011;9726;52.198;8.792;2024-01-30T15:37:02;23.70;;;11.33;;
19187;SDS011;9726;52.198;8.792;2024-01-30T15:39:30;22.23;;;10.40;;
19187;SDS011;9726;52.198;8.792;2024-01-30T15:41:57;16.90;;;11.07;;
19187;SDS011;9726;52.198;8.792;2024-01-30T15:44:25;18.10;;;10.57;;
19187;SDS011;9726;52.198;8.792;2024-01-30T15:46:52;21.87;;;11.03;;
19187;SDS011;9726;52.198;8.792;2024-01-30T15:49:19;19.83;;;10.13;;
19187;SDS011;9726;52.198;8.792;2024-01-30T15:51:46;29.67;;;10.90;;
19187;SDS011;9726;52.198;8.792;2024-01-30T15:54:14;18.57;;;10.13;;
19187;SDS011;9726;52.198;8.792;2024-01-30T15:56:41;18.37;;;9.80;;
19187;SDS011;9726;52.198;8.792;2024-01-30T15:59:08;23.00;;;11.10;;
19187;SDS011;9726;52.198;8.792;2024-01-30T16:01:35;27.47;;;11.80;;
19187;SDS011;9726;52.198;8.792;2024-01-30T16:04:02;32.80;;;13.10;;
19187;SDS011;9726;52.198;8.792;2024-01-30T16:06:29;21.03;;;12.37;;
19187;SDS011;9726;52.198;8.792;2024-01-30T16:08:56;23.08;;;11.73;;
19187;SDS011;9726;52.198;8.792;2024-01-30T16:11:23;22.33;;;12.77;;
19187;SDS011;9726;52.198;8.792;2024-01-30T16:13:51;20.33;;;10.97;;
19187;SDS011;9726;52.198;8.792;2024-01-30T16:16:18;27.47;;;11.67;;
19187;SDS011;9726;52.198;8.792;2024-01-30T16:18:46;28.23;;;12.23;;
19187;SDS011;9726;52.198;8.792;2024-01-30T16:21:13;25.50;;;12.40;;
19187;SDS011;9726;52.198;8.792;2024-01-30T16:23:40;36.20;;;14.03;;
19187;SDS011;9726;52.198;8.792;2024-01-30T16:26:07;23.70;;;11.77;;
19187;SDS011;9726;52.198;8.792;2024-01-30T16:28:35;23.87;;;12.87;;
19187;SDS011;9726;52.198;8.792;2024-01-30T16:31:06;22.60;;;12.40;;
19187;SDS011;9726;52.198;8.792;2024-01-30T16:33:40;20.33;;;12.13;;
19187;SDS011;9726;52.198;8.792;2024-01-30T16:36:07;24.37;;;12.57;;
19187;SDS011;9726;52.198;8.792;2024-01-30T16:38:34;20.50;;;12.23;;
19187;SDS011;9726;52.198;8.792;2024-01-30T16:41:01;22.53;;;12.73;;
19187;SDS011;9726;52.198;8.792;2024-01-30T16:43:28;35.63;;;13.23;;
19187;SDS011;9726;52.198;8.792;2024-01-30T16:45:55;30.10;;;12.40;;
19187;SDS011;9726;52.198;8.792;2024-01-30T16:48:47;22.57;;;13.73;;
19187;SDS011;9726;52.198;8.792;2024-01-30T16:51:42;22.93;;;11.97;;
19187;SDS011;9726;52.198;8.792;2024-01-30T16:54:28;30.40;;;12.73;;
19187;SDS011;9726;52.198;8.792;2024-01-30T16:57:17;20.33;;;11.83;;
19187;SDS011;9726;52.198;8.792;2024-01-30T17:00:07;27.47;;;12.80;;
19187;SDS011;9726;52.198;8.792;2024-01-30T17:02:55;21.53;;;12.50;;
19187;SDS011;9726;52.198;8.792;2024-01-30T17:05:44;32.80;;;13.27;;
19187;SDS011;9726;52.198;8.792;2024-01-30T17:08:30;22.43;;;12.40;;
19187;SDS011;9726;52.198;8.792;2024-01-30T17:11:22;24.40;;;11.37;;
19187;SDS011;9726;52.198;8.792;2024-01-30T17:14:08;21.33;;;11.27;;
19187;SDS011;9726;52.198;8.792;2024-01-30T17:16:58;26.80;;;9.97;;
19187;SDS011;9726;52.198;8.792;2024-01-30T17:19:53;20.87;;;9.73;;
19187;SDS011;9726;52.198;8.792;2024-01-30T17:22:42;18.27;;;9.87;;
19187;SDS011;9726;52.198;8.792;2024-01-30T17:25:32;21.83;;;9.73;;
19187;SDS011;9726;52.198;8.792;2024-01-30T17:28:24;21.40;;;8.43;;
19187;SDS011;9726;52.198;8.792;2024-01-30T17:31:15;20.23;;;7.93;;
19187;SDS011;9726;52.198;8.792;2024-01-30T17:34:01;16.43;;;7.70;;
19187;SDS011;9726;52.198;8.792;2024-01-30T17:36:48;17.47;;;8.40;;
19187;SDS011;9726;52.198;8.792;2024-01-30T17:39:37;12.40;;;6.73;;
19187;SDS011;9726;52.198;8.792;2024-01-30T17:42:24;12.33;;;6.73;;
19187;SDS011;9726;52.198;8.792;2024-01-30T17:45:14;19.87;;;8.00;;
19187;SDS011;9726;52.198;8.792;2024-01-30T17:48:06;17.90;;;7.90;;
19187;SDS011;9726;52.198;8.792;2024-01-30T17:50:52;16.37;;;7.37;;
19187;SDS011;9726;52.198;8.792;2024-01-30T17:53:19;14.70;;;7.97;;
19187;SDS011;9726;52.198;8.792;2024-01-30T17:55:46;13.27;;;6.60;;
19187;SDS011;9726;52.198;8.792;2024-01-30T17:58:14;14.43;;;6.80;;
19187;SDS011;9726;52.198;8.792;2024-01-30T18:00:41;13.80;;;6.87;;
19187;SDS011;9726;52.198;8.792;2024-01-30T18:03:08;16.00;;;7.47;;
19187;SDS011;9726;52.198;8.792;2024-01-30T18:05:35;15.13;;;6.53;;
19187;SDS011;9726;52.198;8.792;2024-01-30T18:08:02;19.40;;;6.90;;
19187;SDS011;9726;52.198;8.792;2024-01-30T18:10:32;13.17;;;6.80;;
19187;SDS011;9726;52.198;8.792;2024-01-30T18:12:59;18.37;;;7.40;;
19187;SDS011;9726;52.198;8.792;2024-01-30T18:15:27;14.17;;;6.33;;